sensor_id;sensor_type;location;lat;lon;timestamp;pressure;altitude;pressure_sealevel;temperature
13497;BMP180;6820;49.374;8.452;2024-03-22T00:01:31;101280.75;;;19.51
13497;BMP180;6820;49.374;8.452;2024-03-22T00:05:32;101277.28;;;19.51
13497;BMP180;6820;49.374;8.452;2024-03-22T00:09:32;101273.91;;;19.52
13497;BMP180;6820;49.374;8.452;2024-03-22T00:13:34;101274.03;;;19.54
13497;BMP180;6820;49.374;8.452;2024-03-22T00:17:34;101269.63;;;19.52
13497;BMP180;6820;49.374;8.452;2024-03-22T00:21:36;101253.22;;;19.49
13497;BMP180;6820;49.374;8.452;2024-03-22T00:25:36;101265.00;;;19.44
13497;BMP180;6820;49.374;8.452;2024-03-22T00:29:37;101262.88;;;19.34
13497;BMP180;6820;49.374;8.452;2024-03-22T00:33:38;101260.53;;;19.18
13497;BMP180;6820;49.374;8.452;2024-03-22T00:37:39;101258.34;;;19.07
13497;BMP180;6820;49.374;8.452;2024-03-22T00:41:39;101249.31;;;18.96
13497;BMP180;6820;49.374;8.452;2024-03-22T00:45:40;101252.38;;;18.88
13497;BMP180;6820;49.374;8.452;2024-03-22T00:49:41;101233.34;;;18.84
13497;BMP180;6820;49.374;8.452;2024-03-22T00:53:42;101218.53;;;18.77
13497;BMP180;6820;49.374;8.452;2024-03-22T00:57:42;101219.03;;;18.69
13497;BMP180;6820;49.374;8.452;2024-03-22T01:01:43;101210.25;;;18.64
13497;BMP180;6820;49.374;8.452;2024-03-22T01:05:44;101204.13;;;18.61
13497;BMP180;6820;49.374;8.452;2024-03-22T01:09:45;101198.66;;;18.53
13497;BMP180;6820;49.374;8.452;2024-03-22T01:13:46;101202.59;;;18.45
13497;BMP180;6820;49.374;8.452;2024-03-22T01:17:46;101206.66;;;18.40
13497;BMP180;6820;49.374;8.452;2024-03-22T01:21:47;101209.00;;;18.36
13497;BMP180;6820;49.374;8.452;2024-03-22T01:25:48;101207.06;;;18.30
13497;BMP180;6820;49.374;8.452;2024-03-22T01:29:48;101200.09;;;18.28
13497;BMP180;6820;49.374;8.452;2024-03-22T01:33:49;101187.41;;;18.31
13497;BMP180;6820;49.374;8.452;2024-03-22T01:37:50;101183.16;;;18.31
13497;BMP180;6820;49.374;8.452;2024-03-22T01:41:51;101180.66;;;18.33
13497;BMP180;6820;49.374;8.452;2024-03-22T01:45:51;101185.00;;;18.34
13497;BMP180;6820;49.374;8.452;2024-03-22T01:49:54;101175.34;;;18.29
13497;BMP180;6820;49.374;8.452;2024-03-22T01:53:55;101182.63;;;18.20
13497;BMP180;6820;49.374;8.452;2024-03-22T01:57:57;101178.97;;;18.15
13497;BMP180;6820;49.374;8.452;2024-03-22T02:01:58;101174.81;;;18.17
13497;BMP180;6820;49.374;8.452;2024-03-22T02:05:58;101157.78;;;18.19
13497;BMP180;6820;49.374;8.452;2024-03-22T02:09:59;101181.00;;;18.22
13497;BMP180;6820;49.374;8.452;2024-03-22T02:14:00;101174.53;;;18.30
13497;BMP180;6820;49.374;8.452;2024-03-22T02:18:00;101169.31;;;18.28
13497;BMP180;6820;49.374;8.452;2024-03-22T02:22:01;101171.56;;;18.21
13497;BMP180;6820;49.374;8.452;2024-03-22T02:26:02;101160.84;;;18.10
13497;BMP180;6820;49.374;8.452;2024-03-22T02:30:03;101164.66;;;18.01
13497;BMP180;6820;49.374;8.452;2024-03-22T02:34:05;101166.88;;;17.94
13497;BMP180;6820;49.374;8.452;2024-03-22T02:38:05;101167.56;;;17.90
13497;BMP180;6820;49.374;8.452;2024-03-22T02:42:06;101172.50;;;17.85
13497;BMP180;6820;49.374;8.452;2024-03-22T02:46:07;101160.22;;;17.78
13497;BMP180;6820;49.374;8.452;2024-03-22T02:50:08;101154.97;;;17.75
13497;BMP180;6820;49.374;8.452;2024-03-22T02:54:08;101148.88;;;17.73
13497;BMP180;6820;49.374;8.452;2024-03-22T02:58:09;101149.75;;;17.74
13497;BMP180;6820;49.374;8.452;2024-03-22T03:02:10;101139.25;;;17.68
13497;BMP180;6820;49.374;8.452;2024-03-22T03:06:10;101130.38;;;17.62
13497;BMP180;6820;49.374;8.452;2024-03-22T03:10:13;101128.50;;;17.58
13497;BMP180;6820;49.374;8.452;2024-03-22T03:14:14;101118.13;;;17.55
13497;BMP180;6820;49.374;8.452;2024-03-22T03:18:15;101117.16;;;17.53
13497;BMP180;6820;49.374;8.452;2024-03-22T03:22:15;101120.69;;;17.55
13497;BMP180;6820;49.374;8.452;2024-03-22T03:26:16;101115.56;;;17.55
13497;BMP180;6820;49.374;8.452;2024-03-22T03:30:17;101116.91;;;17.47
13497;BMP180;6820;49.374;8.452;2024-03-22T03:34:18;101118.97;;;17.37
13497;BMP180;6820;49.374;8.452;2024-03-22T03:38:20;101125.53;;;17.30
13497;BMP180;6820;49.374;8.452;2024-03-22T03:42:22;101117.63;;;17.26
13497;BMP180;6820;49.374;8.452;2024-03-22T03:46:22;101125.31;;;17.26
13497;BMP180;6820;49.374;8.452;2024-03-22T03:50:23;101116.75;;;17.25
13497;BMP180;6820;49.374;8.452;2024-03-22T03:54:24;101118.34;;;17.23
13497;BMP180;6820;49.374;8.452;2024-03-22T03:58:24;101109.72;;;17.21
13497;BMP180;6820;49.374;8.452;2024-03-22T04:02:25;101103.44;;;17.15
13497;BMP180;6820;49.374;8.452;2024-03-22T04:06:26;101103.22;;;17.10
13497;BMP180;6820;49.374;8.452;2024-03-22T04:10:27;101099.53;;;17.06
13497;BMP180;6820;49.374;8.452;2024-03-22T04:14:27;101098.97;;;16.94
13497;BMP180;6820;49.374;8.452;2024-03-22T04:18:28;101094.38;;;16.87
13497;BMP180;6820;49.374;8.452;2024-03-22T04:22:29;101089.91;;;16.83
13497;BMP180;6820;49.374;8.452;2024-03-22T04:26:29;101109.16;;;16.75
13497;BMP180;6820;49.374;8.452;2024-03-22T04:30:30;101085.16;;;16.73
13497;BMP180;6820;49.374;8.452;2024-03-22T04:34:31;101095.69;;;16.79
13497;BMP180;6820;49.374;8.452;2024-03-22T04:38:31;101089.91;;;16.83
13497;BMP180;6820;49.374;8.452;2024-03-22T04:42:32;101084.72;;;16.81
13497;BMP180;6820;49.374;8.452;2024-03-22T04:46:33;101095.63;;;16.77
13497;BMP180;6820;49.374;8.452;2024-03-22T04:50:34;101086.84;;;16.73
13497;BMP180;6820;49.374;8.452;2024-03-22T04:54:34;101078.75;;;16.64
13497;BMP180;6820;49.374;8.452;2024-03-22T04:58:35;101090.50;;;16.60
13497;BMP180;6820;49.374;8.452;2024-03-22T05:02:36;101086.16;;;16.58
13497;BMP180;6820;49.374;8.452;2024-03-22T05:06:36;101087.59;;;16.53
13497;BMP180;6820;49.374;8.452;2024-03-22T05:10:37;101084.81;;;16.48
13497;BMP180;6820;49.374;8.452;2024-03-22T05:14:38;101083.56;;;16.41
13497;BMP180;6820;49.374;8.452;2024-03-22T05:18:38;101079.84;;;16.34
13497;BMP180;6820;49.374;8.452;2024-03-22T05:22:40;101079.50;;;16.28
13497;BMP180;6820;49.374;8.452;2024-03-22T05:26:41;101081.06;;;16.25
13497;BMP180;6820;49.374;8.452;2024-03-22T05:30:41;101072.28;;;16.20
13497;BMP180;6820;49.374;8.452;2024-03-22T05:34:42;101080.03;;;16.21
13497;BMP180;6820;49.374;8.452;2024-03-22T05:38:43;101074.97;;;16.23
13497;BMP180;6820;49.374;8.452;2024-03-22T05:42:43;101083.56;;;16.23
13497;BMP180;6820;49.374;8.452;2024-03-22T05:46:44;101079.31;;;16.24
13497;BMP180;6820;49.374;8.452;2024-03-22T05:50:45;101080.19;;;16.24
13497;BMP180;6820;49.374;8.452;2024-03-22T05:54:46;101077.63;;;16.24
13497;BMP180;6820;49.374;8.452;2024-03-22T05:58:47;101072.50;;;16.24
13497;BMP180;6820;49.374;8.452;2024-03-22T06:02:48;101072.59;;;16.26
13497;BMP180;6820;49.374;8.452;2024-03-22T06:06:49;101071.69;;;16.25
13497;BMP180;6820;49.374;8.452;2024-03-22T06:10:54;101062.50;;;16.29
13497;BMP180;6820;49.374;8.452;2024-03-22T06:14:55;101069.28;;;16.28
13497;BMP180;6820;49.374;8.452;2024-03-22T06:18:55;101060.16;;;16.33
13497;BMP180;6820;49.374;8.452;2024-03-22T06:22:56;101065.16;;;16.47
13497;BMP180;6820;49.374;8.452;2024-03-22T06:26:57;101047.00;;;16.60
13497;BMP180;6820;49.374;8.452;2024-03-22T06:30:58;101045.69;;;16.68
13497;BMP180;6820;49.374;8.452;2024-03-22T06:34:59;101047.13;;;16.80
13497;BMP180;6820;49.374;8.452;2024-03-22T06:38:59;101037.63;;;16.95
13497;BMP180;6820;49.374;8.452;2024-03-22T06:43:00;101038.25;;;17.08
13497;BMP180;6820;49.374;8.452;2024-03-22T06:47:01;101030.13;;;17.17
13497;BMP180;6820;49.374;8.452;2024-03-22T06:51:02;101023.31;;;17.17
13497;BMP180;6820;49.374;8.452;2024-03-22T06:55:04;101031.38;;;17.26
13497;BMP180;6820;49.374;8.452;2024-03-22T06:59:05;101018.38;;;17.40
13497;BMP180;6820;49.374;8.452;2024-03-22T07:03:06;101029.75;;;17.66
13497;BMP180;6820;49.374;8.452;2024-03-22T07:07:06;101006.25;;;17.96
13497;BMP180;6820;49.374;8.452;2024-03-22T07:11:07;100999.72;;;18.22
13497;BMP180;6820;49.374;8.452;2024-03-22T07:15:09;100997.47;;;18.51
13497;BMP180;6820;49.374;8.452;2024-03-22T07:19:09;100990.84;;;18.78
13497;BMP180;6820;49.374;8.452;2024-03-22T07:23:10;100993.47;;;19.01
13497;BMP180;6820;49.374;8.452;2024-03-22T07:27:11;100993.53;;;19.25
13497;BMP180;6820;49.374;8.452;2024-03-22T07:31:12;100983.00;;;19.41
13497;BMP180;6820;49.374;8.452;2024-03-22T07:35:13;100989.28;;;19.49
13497;BMP180;6820;49.374;8.452;2024-03-22T07:39:14;100987.75;;;19.54
13497;BMP180;6820;49.374;8.452;2024-03-22T07:43:15;100983.00;;;19.66
13497;BMP180;6820;49.374;8.452;2024-03-22T07:47:17;100980.69;;;19.73
13497;BMP180;6820;49.374;8.452;2024-03-22T07:51:18;100973.66;;;19.68
13497;BMP180;6820;49.374;8.452;2024-03-22T07:55:19;100971.47;;;19.78
13497;BMP180;6820;49.374;8.452;2024-03-22T07:59:19;100967.50;;;19.87
13497;BMP180;6820;49.374;8.452;2024-03-22T08:03:20;100961.19;;;20.04
13497;BMP180;6820;49.374;8.452;2024-03-22T08:07:21;100965.53;;;20.31
13497;BMP180;6820;49.374;8.452;2024-03-22T08:11:23;100963.69;;;20.55
13497;BMP180;6820;49.374;8.452;2024-03-22T08:15:23;100962.63;;;20.75
13497;BMP180;6820;49.374;8.452;2024-03-22T08:19:24;100951.88;;;20.89
13497;BMP180;6820;49.374;8.452;2024-03-22T08:23:25;100947.38;;;21.11
13497;BMP180;6820;49.374;8.452;2024-03-22T08:27:26;100941.78;;;21.25
13497;BMP180;6820;49.374;8.452;2024-03-22T08:31:26;100941.84;;;21.28
13497;BMP180;6820;49.374;8.452;2024-03-22T08:35:29;100931.41;;;21.24
13497;BMP180;6820;49.374;8.452;2024-03-22T08:39:30;100923.75;;;21.27
13497;BMP180;6820;49.374;8.452;2024-03-22T08:43:30;100921.88;;;21.20
13497;BMP180;6820;49.374;8.452;2024-03-22T08:47:31;100921.56;;;21.09
13497;BMP180;6820;49.374;8.452;2024-03-22T08:51:33;100924.09;;;21.08
13497;BMP180;6820;49.374;8.452;2024-03-22T08:55:34;100920.44;;;21.00
13497;BMP180;6820;49.374;8.452;2024-03-22T08:59:35;100913.78;;;21.08
13497;BMP180;6820;49.374;8.452;2024-03-22T09:03:38;100912.25;;;21.14
13497;BMP180;6820;49.374;8.452;2024-03-22T09:07:39;100913.28;;;21.21
13497;BMP180;6820;49.374;8.452;2024-03-22T09:11:40;100897.25;;;21.32
13497;BMP180;6820;49.374;8.452;2024-03-22T09:15:41;100900.22;;;21.44
13497;BMP180;6820;49.374;8.452;2024-03-22T09:19:41;100884.09;;;21.52
13497;BMP180;6820;49.374;8.452;2024-03-22T09:23:42;100885.22;;;21.63
13497;BMP180;6820;49.374;8.452;2024-03-22T09:27:43;100886.50;;;21.80
13497;BMP180;6820;49.374;8.452;2024-03-22T09:31:43;100874.97;;;21.99
13497;BMP180;6820;49.374;8.452;2024-03-22T09:35:44;100872.66;;;22.10
13497;BMP180;6820;49.374;8.452;2024-03-22T09:39:45;100865.31;;;22.28
13497;BMP180;6820;49.374;8.452;2024-03-22T09:43:48;100858.06;;;22.51
13497;BMP180;6820;49.374;8.452;2024-03-22T09:47:52;100852.53;;;22.74
13497;BMP180;6820;49.374;8.452;2024-03-22T09:51:56;100835.88;;;23.03
13497;BMP180;6820;49.374;8.452;2024-03-22T09:55:59;100833.75;;;23.26
13497;BMP180;6820;49.374;8.452;2024-03-22T10:00:06;100829.72;;;23.40
13497;BMP180;6820;49.374;8.452;2024-03-22T10:04:12;100830.84;;;23.54
13497;BMP180;6820;49.374;8.452;2024-03-22T10:08:12;100824.16;;;23.69
13497;BMP180;6820;49.374;8.452;2024-03-22T10:12:13;100815.78;;;23.84
13497;BMP180;6820;49.374;8.452;2024-03-22T10:16:15;100813.31;;;23.92
13497;BMP180;6820;49.374;8.452;2024-03-22T10:20:16;100802.16;;;23.96
13497;BMP180;6820;49.374;8.452;2024-03-22T10:24:16;100799.69;;;24.07
13497;BMP180;6820;49.374;8.452;2024-03-22T10:28:17;100792.91;;;24.13
13497;BMP180;6820;49.374;8.452;2024-03-22T10:32:18;100784.41;;;24.21
13497;BMP180;6820;49.374;8.452;2024-03-22T10:36:19;100779.97;;;24.17
13497;BMP180;6820;49.374;8.452;2024-03-22T10:40:21;100777.34;;;24.13
13497;BMP180;6820;49.374;8.452;2024-03-22T10:44:29;100782.50;;;24.10
13497;BMP180;6820;49.374;8.452;2024-03-22T10:49:33;100775.47;;;24.02
13497;BMP180;6820;49.374;8.452;2024-03-22T10:53:35;100751.59;;;24.20
13497;BMP180;6820;49.374;8.452;2024-03-22T10:57:39;100754.28;;;24.31
13497;BMP180;6820;49.374;8.452;2024-03-22T11:01:46;100743.13;;;24.35
13497;BMP180;6820;49.374;8.452;2024-03-22T11:05:49;100745.72;;;24.35
13497;BMP180;6820;49.374;8.452;2024-03-22T11:09:55;100731.03;;;24.34
13497;BMP180;6820;49.374;8.452;2024-03-22T11:13:57;100716.41;;;24.40
13497;BMP180;6820;49.374;8.452;2024-03-22T11:17:58;100706.97;;;24.46
13497;BMP180;6820;49.374;8.452;2024-03-22T11:21:59;100712.22;;;24.51
13497;BMP180;6820;49.374;8.452;2024-03-22T11:26:01;100698.50;;;24.62
13497;BMP180;6820;49.374;8.452;2024-03-22T11:30:02;100695.16;;;24.72
13497;BMP180;6820;49.374;8.452;2024-03-22T11:34:03;100678.69;;;24.66
13497;BMP180;6820;49.374;8.452;2024-03-22T11:38:04;100681.28;;;24.67
13497;BMP180;6820;49.374;8.452;2024-03-22T11:42:06;100668.44;;;24.80
13497;BMP180;6820;49.374;8.452;2024-03-22T11:46:07;100660.75;;;24.86
13497;BMP180;6820;49.374;8.452;2024-03-22T11:50:08;100656.53;;;25.00
13497;BMP180;6820;49.374;8.452;2024-03-22T11:54:10;100648.63;;;24.85
13497;BMP180;6820;49.374;8.452;2024-03-22T11:58:11;100647.88;;;24.98
13497;BMP180;6820;49.374;8.452;2024-03-22T12:02:11;100635.88;;;25.09
13497;BMP180;6820;49.374;8.452;2024-03-22T12:06:15;100636.75;;;25.15
13497;BMP180;6820;49.374;8.452;2024-03-22T12:10:15;100622.16;;;25.32
13497;BMP180;6820;49.374;8.452;2024-03-22T12:14:16;100606.63;;;25.34
13497;BMP180;6820;49.374;8.452;2024-03-22T12:18:17;100597.28;;;25.64
13497;BMP180;6820;49.374;8.452;2024-03-22T12:22:18;100610.31;;;25.78
13497;BMP180;6820;49.374;8.452;2024-03-22T12:26:18;100588.75;;;25.91
13497;BMP180;6820;49.374;8.452;2024-03-22T12:30:19;100572.31;;;26.00
13497;BMP180;6820;49.374;8.452;2024-03-22T12:34:20;100568.91;;;26.12
13497;BMP180;6820;49.374;8.452;2024-03-22T12:38:20;100574.09;;;26.17
13497;BMP180;6820;49.374;8.452;2024-03-22T12:42:21;100563.66;;;26.09
13497;BMP180;6820;49.374;8.452;2024-03-22T12:46:22;100567.09;;;26.01
13497;BMP180;6820;49.374;8.452;2024-03-22T12:50:22;100561.88;;;25.85
13497;BMP180;6820;49.374;8.452;2024-03-22T12:54:23;100553.16;;;25.68
13497;BMP180;6820;49.374;8.452;2024-03-22T12:58:25;100554.88;;;25.62
13497;BMP180;6820;49.374;8.452;2024-03-22T13:02:26;100546.22;;;25.63
13497;BMP180;6820;49.374;8.452;2024-03-22T13:06:27;100554.09;;;25.83
13497;BMP180;6820;49.374;8.452;2024-03-22T13:10:28;100535.97;;;26.10
13497;BMP180;6820;49.374;8.452;2024-03-22T13:14:29;100526.47;;;26.30
13497;BMP180;6820;49.374;8.452;2024-03-22T13:18:29;100517.84;;;26.33
13497;BMP180;6820;49.374;8.452;2024-03-22T13:22:30;100509.16;;;26.37
13497;BMP180;6820;49.374;8.452;2024-03-22T13:26:31;100506.56;;;26.42
13497;BMP180;6820;49.374;8.452;2024-03-22T13:30:32;100495.28;;;26.38
13497;BMP180;6820;49.374;8.452;2024-03-22T13:34:37;100484.00;;;26.44
13497;BMP180;6820;49.374;8.452;2024-03-22T13:38:37;100473.59;;;26.54
13497;BMP180;6820;49.374;8.452;2024-03-22T13:42:38;100458.00;;;26.57
13497;BMP180;6820;49.374;8.452;2024-03-22T13:46:39;100459.75;;;26.54
13497;BMP180;6820;49.374;8.452;2024-03-22T13:50:42;100449.31;;;26.76
13497;BMP180;6820;49.374;8.452;2024-03-22T13:54:44;100440.56;;;27.05
13497;BMP180;6820;49.374;8.452;2024-03-22T13:58:44;100428.34;;;27.23
13497;BMP180;6820;49.374;8.452;2024-03-22T14:02:45;100430.06;;;27.27
13497;BMP180;6820;49.374;8.452;2024-03-22T14:06:46;100428.38;;;27.22
13497;BMP180;6820;49.374;8.452;2024-03-22T14:10:46;100422.28;;;27.20
13497;BMP180;6820;49.374;8.452;2024-03-22T14:14:47;100422.31;;;27.12
13497;BMP180;6820;49.374;8.452;2024-03-22T14:18:49;100405.03;;;27.01
13497;BMP180;6820;49.374;8.452;2024-03-22T14:22:50;100400.75;;;26.90
13497;BMP180;6820;49.374;8.452;2024-03-22T14:26:51;100390.38;;;26.81
13497;BMP180;6820;49.374;8.452;2024-03-22T14:30:52;100379.16;;;26.65
13497;BMP180;6820;49.374;8.452;2024-03-22T14:34:52;100380.00;;;26.64
13497;BMP180;6820;49.374;8.452;2024-03-22T14:38:53;100367.00;;;26.60
13497;BMP180;6820;49.374;8.452;2024-03-22T14:42:54;100356.63;;;26.59
13497;BMP180;6820;49.374;8.452;2024-03-22T14:46:55;100341.91;;;26.52
13497;BMP180;6820;49.374;8.452;2024-03-22T14:50:55;100339.31;;;26.50
13497;BMP180;6820;49.374;8.452;2024-03-22T14:54:56;100332.41;;;26.45
13497;BMP180;6820;49.374;8.452;2024-03-22T14:58:57;100328.09;;;26.38
13497;BMP180;6820;49.374;8.452;2024-03-22T15:03:00;100322.91;;;26.28
13497;BMP180;6820;49.374;8.452;2024-03-22T15:07:02;100320.34;;;26.23
13497;BMP180;6820;49.374;8.452;2024-03-22T15:11:03;100311.69;;;26.26
13497;BMP180;6820;49.374;8.452;2024-03-22T15:15:05;100296.94;;;26.26
13497;BMP180;6820;49.374;8.452;2024-03-22T15:19:05;100296.91;;;26.31
13497;BMP180;6820;49.374;8.452;2024-03-22T15:23:06;100290.00;;;26.37
13497;BMP180;6820;49.374;8.452;2024-03-22T15:27:07;100285.63;;;26.36
13497;BMP180;6820;49.374;8.452;2024-03-22T15:31:08;100283.94;;;26.28
13497;BMP180;6820;49.374;8.452;2024-03-22T15:35:10;100277.03;;;26.24
13497;BMP180;6820;49.374;8.452;2024-03-22T15:39:11;100265.78;;;26.22
13497;BMP180;6820;49.374;8.452;2024-03-22T15:43:12;100262.34;;;26.18
13497;BMP180;6820;49.374;8.452;2024-03-22T15:47:13;100255.38;;;26.17
13497;BMP180;6820;49.374;8.452;2024-03-22T15:51:14;100256.25;;;26.12
13497;BMP180;6820;49.374;8.452;2024-03-22T15:55:15;100250.19;;;26.22
13497;BMP180;6820;49.374;8.452;2024-03-22T15:59:15;100231.13;;;26.27
13497;BMP180;6820;49.374;8.452;2024-03-22T16:03:16;100225.91;;;26.27
13497;BMP180;6820;49.374;8.452;2024-03-22T16:07:17;100228.53;;;26.21
13497;BMP180;6820;49.374;8.452;2024-03-22T16:11:17;100220.66;;;26.45
13497;BMP180;6820;49.374;8.452;2024-03-22T16:15:18;100217.00;;;26.80
13497;BMP180;6820;49.374;8.452;2024-03-22T16:19:19;100209.91;;;27.04
13497;BMP180;6820;49.374;8.452;2024-03-22T16:23:20;100209.78;;;27.16
13497;BMP180;6820;49.374;8.452;2024-03-22T16:27:21;100204.72;;;26.99
13497;BMP180;6820;49.374;8.452;2024-03-22T16:31:22;100211.84;;;26.65
13497;BMP180;6820;49.374;8.452;2024-03-22T16:35:23;100204.22;;;26.37
13497;BMP180;6820;49.374;8.452;2024-03-22T16:39:23;100202.50;;;26.30
13497;BMP180;6820;49.374;8.452;2024-03-22T16:43:24;100199.09;;;26.09
13497;BMP180;6820;49.374;8.452;2024-03-22T16:47:25;100194.03;;;25.81
13497;BMP180;6820;49.374;8.452;2024-03-22T16:51:25;100196.66;;;25.68
13497;BMP180;6820;49.374;8.452;2024-03-22T16:55:26;100200.97;;;25.46
13497;BMP180;6820;49.374;8.452;2024-03-22T16:59:27;100200.13;;;25.31
13497;BMP180;6820;49.374;8.452;2024-03-22T17:03:28;100194.09;;;25.22
13497;BMP180;6820;49.374;8.452;2024-03-22T17:07:29;100195.78;;;25.08
13497;BMP180;6820;49.374;8.452;2024-03-22T17:11:30;100189.75;;;24.87
13497;BMP180;6820;49.374;8.452;2024-03-22T17:15:33;100194.88;;;24.66
13497;BMP180;6820;49.374;8.452;2024-03-22T17:19:34;100192.22;;;24.51
13497;BMP180;6820;49.374;8.452;2024-03-22T17:23:35;100181.84;;;24.34
13497;BMP180;6820;49.374;8.452;2024-03-22T17:27:36;100182.63;;;24.19
13497;BMP180;6820;49.374;8.452;2024-03-22T17:31:37;100184.28;;;24.07
13497;BMP180;6820;49.374;8.452;2024-03-22T17:35:38;100175.59;;;23.95
13497;BMP180;6820;49.374;8.452;2024-03-22T17:39:38;100179.00;;;23.84
13497;BMP180;6820;49.374;8.452;2024-03-22T17:43:39;100166.84;;;23.72
13497;BMP180;6820;49.374;8.452;2024-03-22T17:47:42;100168.50;;;23.60
13497;BMP180;6820;49.374;8.452;2024-03-22T17:51:43;100170.13;;;23.49
13497;BMP180;6820;49.374;8.452;2024-03-22T17:55:43;100165.72;;;23.36
13497;BMP180;6820;49.374;8.452;2024-03-22T17:59:44;100161.31;;;23.23
13497;BMP180;6820;49.374;8.452;2024-03-22T18:03:45;100163.84;;;23.15
13497;BMP180;6820;49.374;8.452;2024-03-22T18:07:45;100156.06;;;23.09
13497;BMP180;6820;49.374;8.452;2024-03-22T18:11:46;100148.19;;;22.97
13497;BMP180;6820;49.374;8.452;2024-03-22T18:15:47;100151.56;;;22.89
13497;BMP180;6820;49.374;8.452;2024-03-22T18:19:48;100144.66;;;22.82
13497;BMP180;6820;49.374;8.452;2024-03-22T18:23:49;100141.09;;;22.75
13497;BMP180;6820;49.374;8.452;2024-03-22T18:27:49;100140.19;;;22.70
13497;BMP180;6820;49.374;8.452;2024-03-22T18:31:51;100140.13;;;22.64
13497;BMP180;6820;49.374;8.452;2024-03-22T18:35:51;100134.06;;;22.58
13497;BMP180;6820;49.374;8.452;2024-03-22T18:39:52;100134.84;;;22.54
13497;BMP180;6820;49.374;8.452;2024-03-22T18:43:53;100131.38;;;22.52
13497;BMP180;6820;49.374;8.452;2024-03-22T18:47:54;100134.88;;;22.53
13497;BMP180;6820;49.374;8.452;2024-03-22T18:51:55;100134.88;;;22.56
13497;BMP180;6820;49.374;8.452;2024-03-22T18:55:56;100128.88;;;22.60
13497;BMP180;6820;49.374;8.452;2024-03-22T18:59:57;100128.13;;;22.71
13497;BMP180;6820;49.374;8.452;2024-03-22T19:03:58;100115.19;;;22.71
13497;BMP180;6820;49.374;8.452;2024-03-22T19:08:00;100119.41;;;22.60
13497;BMP180;6820;49.374;8.452;2024-03-22T19:12:02;100126.19;;;22.48
13497;BMP180;6820;49.374;8.452;2024-03-22T19:16:12;100125.22;;;22.37
13497;BMP180;6820;49.374;8.452;2024-03-22T19:20:14;100118.22;;;22.27
13497;BMP180;6820;49.374;8.452;2024-03-22T19:24:15;100118.16;;;22.20
13497;BMP180;6820;49.374;8.452;2024-03-22T19:28:19;100111.16;;;22.08
13497;BMP180;6820;49.374;8.452;2024-03-22T19:32:23;100105.84;;;21.99
13497;BMP180;6820;49.374;8.452;2024-03-22T19:36:36;100114.38;;;21.96
13497;BMP180;6820;49.374;8.452;2024-03-22T19:40:37;100106.63;;;21.91
13497;BMP180;6820;49.374;8.452;2024-03-22T19:44:38;100111.69;;;21.85
13497;BMP180;6820;49.374;8.452;2024-03-22T19:48:39;100113.31;;;21.77
13497;BMP180;6820;49.374;8.452;2024-03-22T19:52:39;100113.19;;;21.67
13497;BMP180;6820;49.374;8.452;2024-03-22T19:56:40;100111.34;;;21.59
13497;BMP180;6820;49.374;8.452;2024-03-22T20:00:41;100104.41;;;21.53
13497;BMP180;6820;49.374;8.452;2024-03-22T20:04:42;100102.56;;;21.45
13497;BMP180;6820;49.374;8.452;2024-03-22T20:08:42;100100.78;;;21.39
13497;BMP180;6820;49.374;8.452;2024-03-22T20:12:43;100099.00;;;21.36
13497;BMP180;6820;49.374;8.452;2024-03-22T20:16:44;100101.47;;;21.30
13497;BMP180;6820;49.374;8.452;2024-03-22T20:20:45;100101.41;;;21.27
13497;BMP180;6820;49.374;8.452;2024-03-22T20:24:45;100100.53;;;21.25
13497;BMP180;6820;49.374;8.452;2024-03-22T20:28:46;100092.75;;;21.20
13497;BMP180;6820;49.374;8.452;2024-03-22T20:32:47;100084.97;;;21.17
13497;BMP180;6820;49.374;8.452;2024-03-22T20:36:48;100084.00;;;21.11
